Time;durP1;ratioP1;P1;durP2;ratioP2;P2;SDS_P1;SDS_P2;PMS_P1;PMS_P2;Temp;Humidity;BMP_temperature;BMP_pressure;BME280_temperature;BME280_humidity;BME280_pressure;Samples;Min_cycle;Max_cycle;Signal;HPM_P1;HPM_P2
2023/01/10 00:00:52;;;;;;;1.33;0.70;;;18.30;70.40;;;;;;4423181;32;20150;-66
2023/01/10 00:03:18;;;;;;;0.73;0.38;;;18.30;70.40;;;;;;4416220;32;20224;-66
2023/01/10 00:05:44;;;;;;;1.58;0.70;;;18.20;70.40;;;;;;4423228;32;20207;-67
2023/01/10 00:08:14;;;;;;;1.83;0.80;;;18.20;70.40;;;;;;4430566;32;20191;-66
2023/01/10 00:10:40;;;;;;;2.03;0.60;;;18.20;70.40;;;;;;4430654;32;20130;-67
2023/01/10 00:13:23;;;;;;;1.95;0.70;;;18.20;70.40;;;;;;4427878;32;20153;-67
2023/01/10 00:15:54;;;;;;;2.67;0.68;;;18.20;70.40;;;;;;4414702;32;20647;-67
2023/01/10 00:18:20;;;;;;;1.95;0.60;;;18.20;70.40;;;;;;4414257;32;20285;-67
2023/01/10 00:20:48;;;;;;;1.00;0.40;;;18.20;70.50;;;;;;4416179;32;20122;-68
2023/01/10 00:23:14;;;;;;;1.63;0.52;;;18.20;70.40;;;;;;4416963;32;20075;-67
2023/01/10 00:25:41;;;;;;;1.58;0.63;;;18.20;70.50;;;;;;4404562;32;20189;-67
2023/01/10 00:28:18;;;;;;;1.02;0.60;;;18.20;70.50;;;;;;4415048;32;20524;-66
2023/01/10 00:30:53;;;;;;;1.25;0.40;;;18.20;70.50;;;;;;4414578;32;20530;-67
2023/01/10 00:33:19;;;;;;;1.38;0.50;;;18.20;70.40;;;;;;4413819;32;20452;-67
2023/01/10 00:35:46;;;;;;;0.85;0.50;;;18.10;70.40;;;;;;4413811;32;20075;-66
2023/01/10 00:38:13;;;;;;;1.02;0.50;;;18.10;70.40;;;;;;4415774;32;20106;-67
2023/01/10 00:40:39;;;;;;;2.80;0.70;;;18.10;70.40;;;;;;4416715;32;20087;-67
2023/01/10 00:45:50;;;;;;;1.33;0.55;;;18.10;70.30;;;;;;4416237;32;20133;-67
2023/01/10 00:48:16;;;;;;;1.52;0.55;;;18.10;70.30;;;;;;4414848;32;20090;-67
2023/01/10 00:50:42;;;;;;;1.25;0.50;;;18.00;70.30;;;;;;4414659;32;20220;-67
2023/01/10 00:53:08;;;;;;;1.02;0.32;;;18.00;70.30;;;;;;4416367;32;20086;-66
2023/01/10 00:55:35;;;;;;;2.47;0.50;;;18.00;70.30;;;;;;4416903;32;20186;-67
2023/01/10 00:58:01;;;;;;;3.50;0.85;;;18.00;70.30;;;;;;4416191;32;20154;-69
2023/01/10 01:00:27;;;;;;;1.80;0.70;;;18.00;70.40;;;;;;4414650;32;20090;-66
2023/01/10 01:02:54;;;;;;;3.13;0.60;;;18.00;70.30;;;;;;4421870;32;20078;-71
2023/01/10 01:05:20;;;;;;;2.05;0.77;;;18.00;70.30;;;;;;4420567;32;20746;-67
2023/01/10 01:07:50;;;;;;;1.25;0.52;;;18.00;70.30;;;;;;4415313;32;20095;-67
2023/01/10 01:10:25;;;;;;;1.75;0.57;;;18.00;70.30;;;;;;4414999;32;20086;-67
2023/01/10 01:12:52;;;;;;;1.02;0.50;;;18.00;70.40;;;;;;4414803;32;20537;-67
2023/01/10 01:15:17;;;;;;;2.30;0.57;;;18.00;70.40;;;;;;4415274;32;20075;-67
2023/01/10 01:17:43;;;;;;;2.00;0.57;;;18.00;70.40;;;;;;4413864;32;20071;-67
2023/01/10 01:20:10;;;;;;;1.20;0.60;;;18.00;70.40;;;;;;4413920;32;20079;-67
2023/01/10 01:22:36;;;;;;;1.55;0.55;;;18.00;70.40;;;;;;4419032;32;20100;-67
2023/01/10 01:25:03;;;;;;;2.15;0.68;;;17.90;70.30;;;;;;4415246;32;20177;-66
2023/01/10 01:27:30;;;;;;;1.83;0.60;;;17.90;70.40;;;;;;4428164;32;20081;-66
2023/01/10 01:29:56;;;;;;;1.48;0.60;;;17.90;70.40;;;;;;4429767;32;20089;-66
2023/01/10 01:32:23;;;;;;;2.75;0.50;;;17.90;70.40;;;;;;4429362;32;20233;-66
2023/01/10 01:34:49;;;;;;;1.75;0.60;;;17.90;70.40;;;;;;4418949;32;20614;-66
2023/01/10 01:37:15;;;;;;;2.35;0.82;;;17.90;70.40;;;;;;4414091;32;20083;-67
2023/01/10 01:39:41;;;;;;;1.30;0.40;;;17.90;70.40;;;;;;4413115;32;20090;-67
2023/01/10 01:42:29;;;;;;;3.58;0.60;;;17.90;70.40;;;;;;4416143;32;20067;-66
2023/01/10 01:45:15;;;;;;;2.13;0.60;;;17.90;70.40;;;;;;4414270;32;20089;-66
2023/01/10 01:47:52;;;;;;;2.88;0.85;;;17.90;70.30;;;;;;4415409;32;20082;-67
2023/01/10 01:50:34;;;;;;;1.20;0.52;;;17.80;70.30;;;;;;4424292;32;20220;-66
2023/01/10 01:53:04;;;;;;;1.50;0.73;;;17.80;70.40;;;;;;4429195;32;20275;-67
2023/01/10 01:55:33;;;;;;;1.10;0.40;;;17.80;70.40;;;;;;4429126;32;20582;-68
2023/01/10 01:58:02;;;;;;;2.22;0.50;;;17.80;70.30;;;;;;4418410;32;20168;-66
2023/01/10 02:00:28;;;;;;;2.47;0.65;;;17.80;70.40;;;;;;4429293;32;20080;-67
2023/01/10 02:02:59;;;;;;;1.00;0.40;;;17.80;70.40;;;;;;4429065;32;20070;-66
2023/01/10 02:05:25;;;;;;;0.90;0.50;;;17.80;70.30;;;;;;4429099;32;20078;-66
2023/01/10 02:07:55;;;;;;;0.85;0.50;;;17.80;70.30;;;;;;4428982;32;20094;-66
2023/01/10 02:10:24;;;;;;;1.40;0.40;;;17.80;70.40;;;;;;4429177;32;20146;-66
2023/01/10 02:12:53;;;;;;;2.25;0.60;;;17.80;70.30;;;;;;4429040;32;20114;-67
2023/01/10 02:15:21;;;;;;;1.23;0.60;;;17.80;70.40;;;;;;4429585;32;20134;-66
2023/01/10 02:17:49;;;;;;;1.80;0.70;;;17.80;70.40;;;;;;4415180;32;20089;-67
2023/01/10 02:20:16;;;;;;;1.40;0.60;;;17.70;70.30;;;;;;4429022;32;20253;-67
2023/01/10 02:23:13;;;;;;;1.92;0.65;;;17.70;70.40;;;;;;4428935;32;20090;-67
2023/01/10 02:25:57;;;;;;;2.58;0.75;;;17.70;70.30;;;;;;4421138;32;20126;-67
2023/01/10 02:28:25;;;;;;;;;;;17.70;70.40;;;;;;4429549;32;20267;-67
2023/01/10 02:31:08;;;;;;;1.48;0.55;;;17.70;70.40;;;;;;4415326;32;19979;-66
2023/01/10 02:33:58;;;;;;;1.65;0.50;;;17.70;70.40;;;;;;4428741;32;20192;-66
2023/01/10 02:36:36;;;;;;;2.35;0.75;;;17.70;70.40;;;;;;4429035;32;20074;-66
2023/01/10 02:39:31;;;;;;;1.15;0.50;;;17.60;70.30;;;;;;4415486;32;20094;-67
2023/01/10 02:42:10;;;;;;;1.27;0.50;;;17.60;70.30;;;;;;4426284;32;20094;-67
2023/01/10 02:44:44;;;;;;;1.10;0.47;;;17.60;70.30;;;;;;4428831;32;20074;-66
2023/01/10 02:47:11;;;;;;;;;;;17.60;70.30;;;;;;4429425;32;20098;-67
2023/01/10 02:49:45;;;;;;;1.02;0.30;;;17.60;70.30;;;;;;4429255;32;19975;-66
2023/01/10 02:52:18;;;;;;;1.02;0.60;;;17.60;70.40;;;;;;4439582;32;20535;-67
2023/01/10 02:54:44;;;;;;;1.85;0.65;;;17.60;70.40;;;;;;4429153;32;20472;-67
2023/01/10 02:57:41;;;;;;;1.83;0.50;;;17.60;70.40;;;;;;4431144;32;20204;-67
2023/01/10 03:00:23;;;;;;;1.75;0.50;;;17.60;70.30;;;;;;4431721;32;20062;-66
2023/01/10 03:03:13;;;;;;;1.30;0.50;;;17.60;70.40;;;;;;4421754;32;20078;-66
2023/01/10 03:05:49;;;;;;;1.48;0.50;;;17.60;70.40;;;;;;4431216;32;20086;-66
2023/01/10 03:08:17;;;;;;;1.25;0.45;;;17.60;70.40;;;;;;4431794;32;20193;-67
2023/01/10 03:10:52;;;;;;;2.00;0.68;;;17.60;70.40;;;;;;4431329;32;20412;-67
2023/01/10 03:13:52;;;;;;;2.15;0.82;;;17.60;70.40;;;;;;4431492;32;20082;-66
2023/01/10 03:16:23;;;;;;;1.95;0.60;;;17.50;70.30;;;;;;4431342;32;20078;-66
2023/01/10 03:18:59;;;;;;;1.38;0.50;;;17.50;70.40;;;;;;4431776;32;20176;-66
2023/01/10 03:21:27;;;;;;;0.88;0.30;;;17.50;70.40;;;;;;4431401;32;20614;-66
2023/01/10 03:23:58;;;;;;;1.60;0.50;;;17.50;70.40;;;;;;4431436;32;20427;-66
2023/01/10 03:26:51;;;;;;;2.60;0.65;;;17.50;70.40;;;;;;4431284;32;20484;-66
2023/01/10 03:29:39;;;;;;;1.15;0.50;;;17.50;70.40;;;;;;4431315;32;20082;-67
2023/01/10 03:32:08;;;;;;;1.10;0.60;;;17.50;70.30;;;;;;4423833;32;20089;-66
2023/01/10 03:34:34;;;;;;;1.30;0.50;;;17.50;70.40;;;;;;4431126;32;20516;-66
2023/01/10 03:37:06;;;;;;;1.50;0.40;;;17.50;70.40;;;;;;4431016;32;20136;-66
2023/01/10 03:39:50;;;;;;;2.35;0.50;;;17.50;70.40;;;;;;4431323;32;20075;-66
2023/01/10 03:44:42;;;;;;;1.85;0.40;;;17.50;70.40;;;;;;4430954;32;20087;-66
2023/01/10 03:45:25;;;;;;;;;;;17.50;70.40;;;;;;4431666;32;20145;-66
2023/01/10 03:47:53;;;;;;;1.05;0.63;;;17.50;70.40;;;;;;4431113;32;20424;-66
2023/01/10 03:50:25;;;;;;;2.08;0.52;;;17.40;70.40;;;;;;4430760;32;20074;-66
2023/01/10 03:52:51;;;;;;;0.93;0.60;;;17.40;70.40;;;;;;4431129;32;20327;-66
2023/01/10 03:55:27;;;;;;;1.38;0.68;;;17.40;70.40;;;;;;4429705;32;20093;-67
2023/01/10 03:57:53;;;;;;;2.15;0.60;;;17.40;70.40;;;;;;4431053;32;20201;-66
2023/01/10 04:00:19;;;;;;;0.93;0.40;;;17.40;70.40;;;;;;4427555;32;20640;-67
2023/01/10 04:02:45;;;;;;;1.23;0.55;;;17.40;70.40;;;;;;4417626;32;20513;-66
2023/01/10 04:05:11;;;;;;;2.00;0.70;;;17.40;70.40;;;;;;4415100;32;20142;-66
2023/01/10 04:07:38;;;;;;;0.80;0.30;;;17.40;70.40;;;;;;4415645;32;20102;-66
2023/01/10 04:10:05;;;;;;;2.10;0.40;;;17.40;70.40;;;;;;4414692;32;20220;-66
2023/01/10 04:12:30;;;;;;;1.63;0.50;;;17.30;70.30;;;;;;4414377;32;20129;-66
2023/01/10 04:14:56;;;;;;;1.48;0.65;;;17.40;70.40;;;;;;4416019;32;20130;-66
2023/01/10 04:17:22;;;;;;;1.88;0.80;;;17.40;70.40;;;;;;4416102;32;20220;-67
2023/01/10 04:19:48;;;;;;;1.52;0.60;;;17.40;70.40;;;;;;4416488;32;20067;-66
2023/01/10 04:22:14;;;;;;;0.88;0.50;;;17.40;70.40;;;;;;4414925;32;20171;-67
2023/01/10 04:24:40;;;;;;;1.45;0.60;;;17.30;70.40;;;;;;4415515;32;20402;-67
2023/01/10 04:27:06;;;;;;;2.03;0.52;;;17.30;70.40;;;;;;4414399;32;20139;-66
2023/01/10 04:29:32;;;;;;;1.48;0.60;;;17.30;70.40;;;;;;4414148;32;20535;-66
2023/01/10 04:31:57;;;;;;;1.95;0.60;;;17.30;70.40;;;;;;4415821;32;20071;-66
2023/01/10 04:34:23;;;;;;;1.85;0.50;;;17.30;70.40;;;;;;4413647;32;20216;-66
2023/01/10 04:36:49;;;;;;;1.42;0.52;;;17.30;70.40;;;;;;4416493;32;20081;-66
2023/01/10 04:39:15;;;;;;;0.80;0.40;;;17.30;70.40;;;;;;4430560;32;20500;-66
2023/01/10 04:41:41;;;;;;;1.33;0.55;;;17.30;70.40;;;;;;4429849;32;20256;-66
2023/01/10 04:44:07;;;;;;;0.88;0.40;;;17.30;70.40;;;;;;4430234;32;20515;-66
2023/01/10 04:46:33;;;;;;;1.30;0.50;;;17.30;70.40;;;;;;4430229;32;20526;-66
2023/01/10 04:48:59;;;;;;;2.33;0.82;;;17.30;71.30;;;;;;4429823;32;20090;-65
2023/01/10 04:51:26;;;;;;;2.25;0.63;;;17.30;70.40;;;;;;4430057;32;20085;-66
2023/01/10 04:53:52;;;;;;;1.25;0.50;;;17.20;70.30;;;;;;4429871;32;20074;-66
2023/01/10 04:56:19;;;;;;;1.23;0.30;;;17.30;70.40;;;;;;4430221;32;20082;-66
2023/01/10 04:58:46;;;;;;;1.40;0.60;;;17.30;70.30;;;;;;4429760;32;20283;-66
2023/01/10 05:01:21;;;;;;;3.45;0.50;;;17.30;70.20;;;;;;4432437;32;20062;-67
2023/01/10 05:03:48;;;;;;;1.33;0.60;;;17.30;70.10;;;;;;4428466;32;20097;-66
2023/01/10 05:06:15;;;;;;;0.90;0.50;;;17.30;70.00;;;;;;4414755;32;20145;-67
2023/01/10 05:08:42;;;;;;;1.23;0.43;;;17.40;70.00;;;;;;4414189;32;20436;-67
2023/01/10 05:11:08;;;;;;;1.02;0.40;;;17.30;69.80;;;;;;4414245;32;20106;-66
2023/01/10 05:13:34;;;;;;;1.05;0.47;;;17.30;69.70;;;;;;4413499;32;20158;-69
2023/01/10 05:16:00;;;;;;;1.10;0.50;;;17.40;69.70;;;;;;4427465;32;20381;-66
2023/01/10 05:18:27;;;;;;;1.05;0.40;;;17.40;69.60;;;;;;4423551;32;20140;-67
2023/01/10 05:21:02;;;;;;;2.30;0.70;;;17.40;69.60;;;;;;4416579;32;20090;-66
2023/01/10 05:23:28;;;;;;;1.50;0.60;;;17.40;69.50;;;;;;4415187;32;20089;-66
2023/01/10 05:25:54;;;;;;;1.55;0.40;;;17.40;69.40;;;;;;4417350;32;20063;-67
2023/01/10 05:28:20;;;;;;;1.67;0.68;;;17.40;69.40;;;;;;4414611;32;20137;-67
2023/01/10 05:30:46;;;;;;;1.23;0.47;;;17.50;69.40;;;;;;4415558;32;20408;-66
2023/01/10 05:33:12;;;;;;;1.85;0.52;;;17.50;69.40;;;;;;4420906;32;20166;-66
2023/01/10 05:35:38;;;;;;;1.88;0.60;;;17.50;69.30;;;;;;4427677;32;20438;-66
2023/01/10 05:38:04;;;;;;;1.38;0.50;;;17.50;69.20;;;;;;4425934;32;20089;-67
2023/01/10 05:40:29;;;;;;;1.60;0.70;;;17.50;69.20;;;;;;4417367;32;20070;-66
2023/01/10 05:42:55;;;;;;;1.20;0.60;;;17.50;69.10;;;;;;4415032;32;20185;-66
2023/01/10 05:45:21;;;;;;;2.90;0.88;;;17.50;69.10;;;;;;4416077;32;20145;-66
2023/01/10 05:47:47;;;;;;;1.35;0.70;;;17.50;69.10;;;;;;4414473;32;20509;-66
2023/01/10 05:50:13;;;;;;;1.73;0.55;;;17.50;69.10;;;;;;4415977;32;20067;-66
2023/01/10 05:52:39;;;;;;;0.95;0.40;;;17.50;69.10;;;;;;4413671;32;20063;-66
2023/01/10 05:55:05;;;;;;;1.88;0.50;;;17.50;69.00;;;;;;4421781;32;20081;-66
2023/01/10 05:57:31;;;;;;;1.20;0.38;;;17.50;69.00;;;;;;4429721;32;20567;-66
2023/01/10 05:59:57;;;;;;;1.45;0.60;;;17.50;69.00;;;;;;4429251;32;20077;-66
2023/01/10 06:02:25;;;;;;;1.98;0.77;;;17.50;69.00;;;;;;4416052;32;20133;-67
2023/01/10 06:04:53;;;;;;;2.00;0.63;;;17.50;68.90;;;;;;4415011;32;20118;-66
2023/01/10 06:07:20;;;;;;;0.85;0.35;;;17.50;69.00;;;;;;4416654;32;20390;-66
2023/01/10 06:09:47;;;;;;;1.25;0.50;;;17.50;68.90;;;;;;4414770;32;20082;-66
2023/01/10 06:12:13;;;;;;;1.30;0.50;;;17.50;69.00;;;;;;4414515;32;20085;-69
2023/01/10 06:14:39;;;;;;;1.73;0.82;;;17.50;69.00;;;;;;4415046;32;20130;-66
2023/01/10 06:17:08;;;;;;;1.52;0.55;;;17.50;68.90;;;;;;4423008;32;20215;-66
2023/01/10 06:19:35;;;;;;;1.75;0.57;;;17.50;68.90;;;;;;4429032;32;20090;-66
2023/01/10 06:22:03;;;;;;;1.20;0.50;;;17.60;68.90;;;;;;4428726;32;20074;-66
2023/01/10 06:24:29;;;;;;;1.23;0.40;;;17.50;68.90;;;;;;4420101;32;20472;-66
2023/01/10 06:26:54;;;;;;;1.50;0.52;;;17.50;68.90;;;;;;4429101;32;20586;-66
2023/01/10 06:29:20;;;;;;;1.27;0.60;;;17.50;68.80;;;;;;4428908;32;20500;-66
2023/01/10 06:31:46;;;;;;;1.75;0.40;;;17.60;68.80;;;;;;4430753;32;20409;-66
2023/01/10 06:34:12;;;;;;;0.88;0.38;;;17.60;68.80;;;;;;4438805;32;20066;-67
2023/01/10 06:36:38;;;;;;;2.22;0.68;;;17.60;68.80;;;;;;4421851;32;20543;-66
2023/01/10 06:39:03;;;;;;;0.85;0.50;;;17.60;68.70;;;;;;4432126;32;20078;-66
2023/01/10 06:41:29;;;;;;;2.05;0.63;;;17.60;68.70;;;;;;4431831;32;20220;-66
2023/01/10 06:43:55;;;;;;;0.98;0.52;;;17.60;68.70;;;;;;4431789;32;20078;-66
2023/01/10 06:46:21;;;;;;;1.30;0.50;;;17.60;68.60;;;;;;4432013;32;20110;-66
2023/01/10 06:48:47;;;;;;;1.33;0.40;;;17.60;68.70;;;;;;4405228;32;20070;-67
2023/01/10 06:51:14;;;;;;;1.55;0.40;;;17.60;68.60;;;;;;4431953;32;20077;-67
2023/01/10 06:53:41;;;;;;;1.90;0.82;;;17.60;68.60;;;;;;4431728;32;20074;-67
2023/01/10 06:56:08;;;;;;;1.48;0.32;;;17.60;68.50;;;;;;4431821;32;20086;-66
2023/01/10 06:58:37;;;;;;;1.52;0.45;;;17.60;68.50;;;;;;4431740;32;20113;-66
2023/01/10 07:01:05;;;;;;;0.85;0.30;;;17.60;68.50;;;;;;4431800;32;20101;-66
2023/01/10 07:03:30;;;;;;;1.10;0.50;;;17.70;68.50;;;;;;4431494;32;20090;-67
2023/01/10 07:06:01;;;;;;;1.95;0.50;;;17.60;68.50;;;;;;4431323;32;20165;-66
2023/01/10 07:08:27;;;;;;;1.35;0.50;;;17.60;68.40;;;;;;4431669;32;20634;-67
2023/01/10 07:10:56;;;;;;;1.40;0.70;;;17.60;68.30;;;;;;4431487;32;20117;-67
2023/01/10 07:13:23;;;;;;;1.55;0.60;;;17.60;68.30;;;;;;4431487;32;20089;-66
2023/01/10 07:15:48;;;;;;;1.63;0.50;;;17.60;68.30;;;;;;4431443;32;20089;-66
2023/01/10 07:18:14;;;;;;;1.35;0.50;;;17.60;68.30;;;;;;4431543;32;20126;-67
2023/01/10 07:20:40;;;;;;;1.15;0.40;;;17.60;68.30;;;;;;4431510;32;20085;-67
2023/01/10 07:23:06;;;;;;;1.63;0.45;;;17.60;68.40;;;;;;4431249;32;20059;-67
2023/01/10 07:25:32;;;;;;;2.33;0.50;;;17.60;68.50;;;;;;4417696;32;20070;-66
2023/01/10 07:27:58;;;;;;;1.30;0.52;;;17.60;68.50;;;;;;4431239;32;20271;-66
2023/01/10 07:30:24;;;;;;;0.70;0.45;;;17.60;68.50;;;;;;4431286;32;20511;-66
2023/01/10 07:32:55;;;;;;;1.95;0.50;;;17.60;68.50;;;;;;4417516;32;20114;-66
2023/01/10 07:35:21;;;;;;;0.85;0.32;;;17.60;68.60;;;;;;4430779;32;20084;-67
2023/01/10 07:37:47;;;;;;;0.75;0.35;;;17.50;68.50;;;;;;4431420;32;20105;-66
2023/01/10 07:40:13;;;;;;;1.25;0.32;;;17.50;68.50;;;;;;4431019;32;20480;-67
2023/01/10 07:42:39;;;;;;;1.02;0.40;;;17.50;68.50;;;;;;4430589;32;20077;-67
2023/01/10 07:45:07;;;;;;;1.70;0.55;;;17.50;68.50;;;;;;4431272;32;20067;-67
2023/01/10 07:47:33;;;;;;;0.63;0.30;;;17.50;68.50;;;;;;4431141;32;20428;-66
2023/01/10 07:49:59;;;;;;;2.05;0.73;;;17.50;68.60;;;;;;4431244;32;20559;-67
2023/01/10 07:52:25;;;;;;;2.83;0.70;;;17.50;68.90;;;;;;4430881;32;20080;-67
2023/01/10 07:54:52;;;;;;;3.47;0.50;;;17.50;69.10;;;;;;4431191;32;20086;-67
2023/01/10 07:57:18;;;;;;;2.63;0.63;;;17.50;69.00;;;;;;4430800;32;20063;-67
2023/01/10 07:59:44;;;;;;;1.67;0.50;;;17.60;68.90;;;;;;4430981;32;20526;-66
2023/01/10 08:02:10;;;;;;;0.70;0.38;;;17.70;68.60;;;;;;4430589;32;20070;-67
2023/01/10 08:04:37;;;;;;;2.97;0.50;;;17.80;68.30;;;;;;4430637;32;20075;-67
2023/01/10 08:07:04;;;;;;;2.30;0.40;;;18.00;67.90;;;;;;4428686;32;20570;-67
2023/01/10 08:09:29;;;;;;;3.17;0.50;;;18.10;67.50;;;;;;4430632;32;20416;-67
2023/01/10 08:11:57;;;;;;;1.17;0.40;;;18.20;67.20;;;;;;4430786;32;20074;-67
2023/01/10 08:14:23;;;;;;;1.90;0.73;;;18.40;66.80;;;;;;4430534;32;20083;-67
2023/01/10 08:16:48;;;;;;;1.60;0.47;;;18.50;66.50;;;;;;4430882;32;20370;-67
2023/01/10 08:19:16;;;;;;;2.40;0.65;;;18.60;66.20;;;;;;4430435;32;20172;-67
2023/01/10 08:21:43;;;;;;;0.88;0.35;;;18.80;65.90;;;;;;4430575;32;20100;-67
2023/01/10 08:24:08;;;;;;;1.35;0.60;;;18.80;65.50;;;;;;4430453;32;20539;-67
2023/01/10 08:26:35;;;;;;;1.63;0.47;;;19.00;65.30;;;;;;4430628;32;20098;-67
2023/01/10 08:29:00;;;;;;;1.02;0.43;;;19.10;65.10;;;;;;4430698;32;20062;-67
2023/01/10 08:31:27;;;;;;;2.60;0.60;;;19.20;64.80;;;;;;4430159;32;20067;-67
2023/01/10 08:33:52;;;;;;;1.52;0.50;;;19.20;64.60;;;;;;4430391;32;20078;-67
2023/01/10 08:36:21;;;;;;;2.50;0.57;;;19.30;64.50;;;;;;4430381;32;20081;-67
2023/01/10 08:38:49;;;;;;;1.98;0.70;;;19.30;64.40;;;;;;4430617;32;20070;-68
2023/01/10 08:41:15;;;;;;;1.73;0.70;;;19.40;64.40;;;;;;4429755;32;20082;-68
2023/01/10 08:43:41;;;;;;;1.60;0.55;;;19.40;64.30;;;;;;4429666;32;20572;-67
2023/01/10 08:46:07;;;;;;;1.40;0.68;;;19.40;64.30;;;;;;4429604;32;20141;-68
2023/01/10 08:48:33;;;;;;;1.00;0.50;;;19.40;64.30;;;;;;4417901;32;20134;-68
2023/01/10 08:51:05;;;;;;;1.95;0.68;;;19.40;64.30;;;;;;4427728;32;20428;-68
2023/01/10 08:53:30;;;;;;;2.10;0.80;;;19.40;64.40;;;;;;4428875;32;20188;-71
2023/01/10 08:55:56;;;;;;;1.63;0.63;;;19.40;64.40;;;;;;4429677;32;20089;-68
2023/01/10 08:58:22;;;;;;;1.83;0.55;;;19.50;64.40;;;;;;4429563;32;20093;-67
2023/01/10 09:00:48;;;;;;;1.88;0.50;;;19.50;64.40;;;;;;4427356;32;20149;-68
2023/01/10 09:03:14;;;;;;;2.00;0.60;;;19.50;64.40;;;;;;4429367;32;20077;-68
2023/01/10 09:05:40;;;;;;;0.95;0.52;;;19.50;64.30;;;;;;4418314;32;20579;-67
2023/01/10 09:08:06;;;;;;;1.50;0.60;;;19.50;64.30;;;;;;4414211;32;20157;-67
2023/01/10 09:10:32;;;;;;;2.78;0.70;;;19.50;64.30;;;;;;4416067;32;20169;-68
2023/01/10 09:13:00;;;;;;;1.83;0.70;;;19.50;64.30;;;;;;4417101;32;20308;-67
2023/01/10 09:15:32;;;;;;;1.92;0.60;;;19.50;64.30;;;;;;4415390;32;20600;-67
2023/01/10 09:18:01;;;;;;;2.25;0.63;;;19.50;64.30;;;;;;4415908;32;20070;-67
2023/01/10 09:20:28;;;;;;;2.53;0.77;;;19.60;64.30;;;;;;4414651;32;20512;-67
2023/01/10 09:22:55;;;;;;;1.05;0.50;;;19.60;64.30;;;;;;4414606;32;20457;-67
2023/01/10 09:25:21;;;;;;;2.35;0.60;;;19.60;64.30;;;;;;4413909;32;20208;-67
2023/01/10 09:27:54;;;;;;;1.52;0.63;;;19.60;64.30;;;;;;4417393;32;20083;-67
2023/01/10 09:30:20;;;;;;;2.15;0.70;;;19.50;64.30;;;;;;4429658;32;20066;-67
2023/01/10 09:32:50;;;;;;;0.73;0.38;;;19.60;64.40;;;;;;4415473;32;20093;-67
2023/01/10 09:35:16;;;;;;;2.53;0.85;;;19.60;64.30;;;;;;4421204;32;20081;-67
2023/01/10 09:37:41;;;;;;;2.58;0.70;;;19.60;64.30;;;;;;4414775;32;20150;-68
2023/01/10 09:40:12;;;;;;;2.40;0.60;;;19.60;64.40;;;;;;4415470;32;20424;-67
2023/01/10 09:42:56;;;;;;;1.88;0.65;;;19.60;64.40;;;;;;4414255;32;20063;-68
2023/01/10 09:45:45;;;;;;;2.95;0.63;;;19.60;64.40;;;;;;4414110;32;20608;-70
2023/01/10 09:48:31;;;;;;;3.10;0.77;;;19.60;64.30;;;;;;4415685;32;20086;-67
2023/01/10 09:51:08;;;;;;;1.33;0.50;;;19.60;64.30;;;;;;4425712;32;20097;-67
2023/01/10 09:53:38;;;;;;;4.78;0.80;;;19.60;64.30;;;;;;4429181;32;20212;-68
2023/01/10 09:56:06;;;;;;;2.58;0.60;;;19.70;64.30;;;;;;4429137;32;20083;-67
2023/01/10 09:58:34;;;;;;;3.10;0.90;;;19.70;64.20;;;;;;4423085;32;20118;-67
2023/01/10 10:01:15;;;;;;;1.98;0.80;;;19.70;64.20;;;;;;4415615;32;20075;-67
2023/01/10 10:04:06;;;;;;;3.33;0.80;;;19.70;64.30;;;;;;4415467;32;20083;-67
2023/01/10 10:06:33;;;;;;;2.05;0.63;;;19.70;64.50;;;;;;4416786;32;20118;-68
2023/01/10 10:10:24;;;;;;;2.55;0.80;;;19.70;63.90;;;;;;4578953;31;20252;-65
2023/01/10 10:13:14;;;;;;;2.13;0.80;;;19.60;64.60;;;;;;4576542;31;20083;-66
2023/01/10 10:16:29;;;;;;;2.25;0.98;;;19.60;64.80;;;;;;4574629;31;20119;-65
2023/01/10 10:19:11;;;;;;;3.67;0.73;;;19.60;65.00;;;;;;4543531;31;20138;-65
2023/01/10 10:22:01;;;;;;;4.78;0.90;;;19.60;65.10;;;;;;4560448;31;20075;-65
2023/01/10 10:24:42;;;;;;;3.75;1.02;;;19.60;65.10;;;;;;4558946;31;20181;-65
2023/01/10 10:27:15;;;;;;;2.08;0.70;;;19.60;65.10;;;;;;4571506;31;20664;-64
2023/01/10 10:29:53;;;;;;;2.55;0.90;;;19.60;65.10;;;;;;4567787;31;20170;-64
2023/01/10 10:32:29;;;;;;;4.03;0.73;;;19.60;65.10;;;;;;4559262;31;20614;-65
2023/01/10 10:35:06;;;;;;;5.65;0.80;;;19.60;65.20;;;;;;4562052;31;20207;-66
2023/01/10 10:37:42;;;;;;;1.98;0.70;;;19.60;65.30;;;;;;4551543;31;20127;-65
2023/01/10 10:40:16;;;;;;;3.03;0.70;;;19.60;65.30;;;;;;4560183;31;20131;-65
2023/01/10 10:42:49;;;;;;;2.45;1.00;;;19.70;65.40;;;;;;4559457;31;20449;-65
2023/01/10 10:45:44;;;;;;;5.07;0.90;;;19.70;65.40;;;;;;4558935;31;20278;-65
2023/01/10 10:48:39;;;;;;;2.38;0.85;;;19.60;65.40;;;;;;4572403;31;20145;-66
2023/01/10 10:51:47;;;;;;;3.17;0.80;;;19.60;65.40;;;;;;4562616;31;20098;-65
2023/01/10 10:54:13;;;;;;;1.95;0.60;;;19.60;65.40;;;;;;4550099;31;20123;-67
2023/01/10 10:56:42;;;;;;;3.20;1.05;;;19.60;65.50;;;;;;4560453;31;20139;-65
2023/01/10 10:59:10;;;;;;;1.90;0.70;;;19.60;65.50;;;;;;4559088;31;20137;-66
2023/01/10 11:01:36;;;;;;;1.85;0.70;;;19.70;65.60;;;;;;4534588;31;20139;-66
2023/01/10 11:04:09;;;;;;;1.70;0.75;;;19.70;65.60;;;;;;4559480;31;20475;-66
2023/01/10 11:06:37;;;;;;;;;;;19.70;65.60;;;;;;4553466;31;20632;-64
2023/01/10 11:09:05;;;;;;;2.05;1.08;;;19.70;65.50;;;;;;4562789;31;20074;-65
2023/01/10 11:11:44;;;;;;;3.15;0.68;;;19.70;65.50;;;;;;4558792;31;20135;-64
2023/01/10 11:14:12;;;;;;;2.35;0.90;;;19.70;65.50;;;;;;4560679;31;20147;-65
2023/01/10 11:16:40;;;;;;;1.10;0.68;;;19.70;65.50;;;;;;4558553;31;20262;-65
2023/01/10 11:19:12;;;;;;;3.20;0.82;;;19.70;65.40;;;;;;4559847;31;20272;-64
2023/01/10 11:21:40;;;;;;;2.30;0.98;;;19.80;65.40;;;;;;4549920;31;20099;-64
2023/01/10 11:24:36;;;;;;;1.00;0.60;;;19.70;65.30;;;;;;4547503;31;20131;-64
2023/01/10 11:27:18;;;;;;;5.80;1.20;;;19.80;65.30;;;;;;4556584;31;20746;-64
2023/01/10 11:29:51;;;;;;;3.03;0.80;;;19.80;65.30;;;;;;4548611;31;20091;-64
2023/01/10 11:32:44;;;;;;;2.08;0.77;;;19.70;65.20;;;;;;4554632;31;20123;-64
2023/01/10 11:35:18;;;;;;;2.28;0.65;;;19.80;65.30;;;;;;4530372;31;20119;-64
2023/01/10 11:38:04;;;;;;;2.65;0.77;;;19.80;65.30;;;;;;4561491;31;20131;-65
2023/01/10 11:40:32;;;;;;;2.35;0.88;;;19.80;65.40;;;;;;4559186;31;20639;-64
2023/01/10 11:42:59;;;;;;;5.13;1.05;;;19.80;65.30;;;;;;4557090;31;20390;-64
2023/01/10 11:45:32;;;;;;;2.40;0.80;;;19.80;65.40;;;;;;4533024;31;20249;-64
2023/01/10 11:48:04;;;;;;;;;;;19.80;65.30;;;;;;4560039;31;20139;-65
2023/01/10 11:50:34;;;;;;;2.28;0.70;;;19.80;65.30;;;;;;4561581;31;20130;-65
2023/01/10 11:53:00;;;;;;;4.22;1.10;;;19.80;65.30;;;;;;4550085;31;20119;-66
2023/01/10 11:55:31;;;;;;;2.88;1.08;;;19.80;65.30;;;;;;4552059;31;20092;-63
2023/01/10 11:58:09;;;;;;;2.42;0.68;;;19.80;65.40;;;;;;4539864;31;20261;-64
2023/01/10 12:00:47;;;;;;;3.22;1.08;;;19.70;65.60;;;;;;4549528;31;20245;-63
2023/01/10 12:03:27;;;;;;;2.55;0.90;;;19.80;65.50;;;;;;4532001;31;20182;-63
2023/01/10 12:06:05;;;;;;;3.67;1.02;;;19.80;65.50;;;;;;4547871;31;20317;-64
2023/01/10 12:08:33;;;;;;;5.55;0.70;;;19.80;65.50;;;;;;4550756;31;20111;-64
2023/01/10 12:11:06;;;;;;;3.35;0.80;;;19.80;65.40;;;;;;4551535;31;20251;-63
2023/01/10 12:13:43;;;;;;;1.77;0.70;;;19.80;65.40;;;;;;4561887;31;20119;-63
2023/01/10 12:16:14;;;;;;;2.20;0.63;;;19.90;65.50;;;;;;4547740;31;20169;-64
2023/01/10 12:18:40;;;;;;;2.30;0.60;;;19.90;65.40;;;;;;4560400;31;20127;-64
2023/01/10 12:21:08;;;;;;;2.92;0.95;;;19.90;65.30;;;;;;4544457;31;20083;-64
2023/01/10 12:23:39;;;;;;;2.22;0.80;;;19.90;65.30;;;;;;4547680;31;20214;-64
2023/01/10 12:26:06;;;;;;;4.97;1.00;;;19.90;65.40;;;;;;4547812;31;20111;-65
2023/01/10 12:28:35;;;;;;;2.17;1.10;;;19.90;65.40;;;;;;4561334;31;20710;-65
2023/01/10 12:31:02;;;;;;;2.58;0.88;;;19.90;65.50;;;;;;4552568;31;20136;-64
2023/01/10 12:33:39;;;;;;;3.38;1.00;;;19.80;65.60;;;;;;4545677;31;20132;-64
2023/01/10 12:36:14;;;;;;;3.97;1.33;;;19.80;65.60;;;;;;4547586;31;20131;-64
2023/01/10 12:39:07;;;;;;;9.68;1.30;;;19.70;65.70;;;;;;4544486;31;20168;-64
2023/01/10 12:44:35;;;;;;;4.75;0.80;;;19.60;65.80;;;;;;4554567;31;20140;-65
2023/01/10 12:47:10;;;;;;;3.20;0.98;;;19.50;66.00;;;;;;4554174;31;20219;-64
2023/01/10 12:50:02;;;;;;;9.98;1.00;;;19.40;67.00;;;;;;4549561;31;20139;-64
2023/01/10 12:52:47;;;;;;;2.50;0.80;;;19.40;66.30;;;;;;4521890;31;20123;-64
2023/01/10 12:55:20;;;;;;;7.65;1.23;;;19.30;66.50;;;;;;4551418;31;20636;-64
2023/01/10 12:57:50;;;;;;;8.63;1.02;;;19.20;66.60;;;;;;4553647;31;20146;-64
2023/01/10 13:00:41;;;;;;;3.13;0.90;;;19.20;66.70;;;;;;4554434;31;20092;-64
2023/01/10 13:03:18;;;;;;;2.67;0.98;;;19.20;66.80;;;;;;4541565;31;20160;-64
2023/01/10 13:05:48;;;;;;;3.47;0.98;;;19.10;67.00;;;;;;4550096;31;20135;-64
2023/01/10 13:08:18;;;;;;;4.28;1.10;;;19.10;67.20;;;;;;4553118;31;20210;-64
2023/01/10 13:10:51;;;;;;;2.55;0.80;;;19.00;67.20;;;;;;4539129;31;20269;-64
2023/01/10 13:13:35;;;;;;;2.95;1.02;;;19.00;67.30;;;;;;4546916;31;20436;-64